Terminal Aerodrome Forecast
Issued by NWS Grand Forks, ND

Home | Current Version | Previous Version | Text Only | Print | Product List | Glossary On
Versions: 1 2 3 4 5 6 7 8 9 10 11 12 13 14 15 16 17 18 19 20 21 22 23 24 25 26 27 28 29 30 31 32
014
FTUS43 KFGF 131127
TAFGFK
TAF
KGFK 131127Z 1312/1412 14009KT 4SM -SN OVC015
      TEMPO 1312/1316 2SM -SN OVC009
     FM132000 36010KT P6SM OVC015
     FM132300 34015G24KT P6SM OVC015
     FM140700 33013KT P6SM FEW250=

USA.gov is the U.S. government's official web portal to all federal, state and local government web resources and services.